Dillon, CO

6:03 PM MDT on August 21, 2014 (GMT -0600)
Berthoud Pass | Change Station
CLOSE
Current Station
Airport
Location: Berthoud Pass,
Elevation: 12490 ft
Nearby Weather Stations

Elev 12490 ft 39.79 °N, 105.76 °W | Updated 9 minutes ago

Overcast
Overcast
43 °F
Feels Like 36 °F
N
13
Wind Variable Wind from WNW

Today
High -- | Low -- °F
--% Chance of Precip.
Yesterday
High -- | Low -- °F
Precip. -- in
6:22 AM 7:51 PM
Waning Crescent, 11% visible
Pressure 30.64 in
Visibility 10.0 miles
Clouds Mostly Cloudy 4700 ft
Overcast 5500 ft
Windchill 36 °F
Dew Point 41 °F
Humidity 93%
Rainfall 0.00 in
Snow Depth 0 in , 3 in
UV 1 out of 12
Pollen 9.70 out of 12
Air Quality Not available.
Flu Activity Not available.
METAR K0CO 212354Z AUTO 30011KT 10SM BKN047 OVC055 06/05 A3064 RMK AO2 LTG DSNT N AND NE

More Conditions Fewer Conditions

Pressure 30.64 in
Visibility 10.0 miles
Clouds Mostly Cloudy 4700 ft
Overcast 5500 ft
Windchill 36 °F
Dew Point 41 °F
Humidity 93%
Rainfall 0.00 in
Snow Depth 0 in , 3 in
UV 1 out of 12
Pollen 9.70 out of 12
Air Quality Not available.
Flu Activity Not available.
METAR K0CO 212354Z AUTO 30011KT 10SM BKN047 OVC055 06/05 A3064 RMK AO2 LTG DSNT N AND NE

More Conditions Fewer Conditions

Nowcast | as of 5:58 PM MDT on August 21, 2014

Scattered showers and isolated thunderstorms will northeast across the mountains and High Mountain valleys through early evening. The storms will be most numerous along the Interstate 70 corridor. Rainfall amounts should be less than a quarter of an inch.

×

10-Day Weather Forecast

Almanac

Astronomy

Aug. 21, 2014 Rise Set
Actual Time 6:22 AM MDT 7:51 PM MDT
Civil Twilight 5:53 AM MDT 8:19 PM MDT
Nautical Twilight 5:19 AM MDT 8:53 PM MDT
Astronomical Twilight 4:43 AM MDT 9:29 PM MDT
Moon 2:55 AM MDT (8/21) 5:21 PM MDT (8/21)
Length of Visible Light 14h 25m
Length of Day
13h 29m
Tomorrow will be 2m 23s shorter.
Waning Crescent, 11% of the Moon is Illuminated
Today
Waning Crescent
Aug 25
New
Sep 2
First Quarter
Sep 8
Full
Sep 15
Last Quarter

Today's Extremes

State Highs State Lows

Community

WunderPhotos

Upload Photos

1,746,059 photos uploaded!

Nearby

Snow Depth

Station Depth Elevation
Michigan Creek 0 in 10600 ft
Loveland Basin 3 in 11400 ft
Summit Ranch 0 in 9400 ft
Berthoud Summit 0 in 11300 ft
Mccoy Park 10 in 9480 ft

Earthquake Activity

City Distance Mag. Time & Date
No recent earthquake activity has been reported nearby.
Minimum magnitude displayed is 2.5.

Coastal Water Temperatures

Place Temperature
No Stations Reporting

Nearby Weather Stations